createdAt,value
2022-09-06T00:00:59.922Z,26.04
2022-09-06T00:03:28.854Z,26.10
2022-09-06T00:05:57.046Z,26.46
2022-09-06T00:08:33.407Z,26.29
2022-09-06T00:11:01.648Z,26.24
2022-09-06T00:13:29.932Z,26.37
2022-09-06T00:16:05.136Z,26.47
2022-09-06T00:18:33.286Z,26.52
2022-09-06T00:21:01.490Z,26.35
2022-09-06T00:23:29.582Z,26.51
2022-09-06T00:26:03.074Z,26.17
2022-09-06T00:28:31.371Z,26.10
2022-09-06T00:31:09.098Z,26.09
2022-09-06T00:33:37.254Z,26.42
2022-09-06T00:36:05.240Z,26.09
2022-09-06T00:38:33.662Z,26.29
2022-09-06T00:41:01.742Z,26.28
2022-09-06T00:43:29.945Z,26.03
2022-09-06T00:46:02.614Z,26.55
2022-09-06T00:48:30.916Z,26.25
2022-09-06T00:51:00.437Z,26.10
2022-09-06T00:53:29.357Z,26.23
2022-09-06T00:55:57.330Z,26.33
2022-09-06T00:58:26.397Z,26.32
2022-09-06T01:00:54.547Z,26.55
2022-09-06T01:03:24.548Z,26.46
2022-09-06T01:05:59.234Z,26.51
2022-09-06T01:08:34.306Z,26.70
2022-09-06T01:11:11.356Z,27.32
2022-09-06T01:13:46.410Z,27.42
2022-09-06T01:16:19.230Z,27.38
2022-09-06T01:18:55.165Z,27.28
2022-09-06T01:21:30.678Z,27.57
2022-09-06T01:24:12.943Z,28.41
2022-09-06T01:26:58.640Z,28.18
2022-09-06T01:29:34.045Z,28.01
2022-09-06T01:32:06.084Z,28.65
2022-09-06T01:34:36.813Z,28.49
2022-09-06T01:37:10.216Z,28.44
2022-09-06T01:39:39.797Z,28.83
2022-09-06T01:42:10.650Z,28.46
2022-09-06T01:44:42.329Z,29.05
2022-09-06T01:47:15.834Z,29.00
2022-09-06T01:49:50.972Z,29.31
2022-09-06T01:52:21.692Z,29.18
2022-09-06T01:55:00.217Z,29.64
2022-09-06T01:57:36.455Z,29.54
2022-09-06T02:00:09.578Z,29.43
2022-09-06T02:02:45.742Z,30.04
2022-09-06T02:05:17.259Z,29.86
2022-09-06T02:07:46.672Z,30.09
2022-09-06T02:10:19.067Z,30.21
2022-09-06T02:12:48.947Z,30.30
2022-09-06T02:15:22.547Z,30.49
2022-09-06T02:17:52.188Z,30.64
2022-09-06T02:20:22.559Z,30.82
2022-09-06T02:22:52.310Z,31.59
2022-09-06T02:25:23.875Z,31.16
2022-09-06T02:27:52.075Z,30.98
2022-09-06T02:30:21.490Z,32.04
2022-09-06T02:32:51.120Z,31.94
2022-09-06T02:35:19.320Z,32.22
2022-09-06T02:37:47.529Z,32.22
2022-09-06T02:40:15.598Z,32.33
2022-09-06T02:42:43.562Z,31.55
2022-09-06T02:45:12.854Z,32.05
2022-09-06T02:47:42.493Z,32.16
2022-09-06T02:50:10.694Z,32.47
2022-09-06T02:52:38.881Z,32.45
2022-09-06T02:55:07.690Z,33.32
2022-09-06T02:57:36.725Z,32.66
2022-09-06T03:00:06.009Z,33.15
2022-09-06T03:02:34.141Z,33.68
2022-09-06T03:05:03.616Z,34.05
2022-09-06T03:07:31.687Z,33.78
2022-09-06T03:10:00.255Z,35.09
2022-09-06T03:12:28.229Z,34.34
2022-09-06T03:14:56.652Z,34.86
2022-09-06T03:17:24.854Z,33.88
2022-09-06T03:19:53.419Z,34.04
2022-09-06T03:22:22.821Z,34.31
2022-09-06T03:24:50.895Z,34.39
2022-09-06T03:27:18.864Z,33.99
2022-09-06T03:29:46.947Z,33.68
2022-09-06T03:32:15.017Z,34.10
2022-09-06T03:34:42.988Z,33.83
2022-09-06T03:37:11.072Z,33.60
2022-09-06T03:39:40.933Z,34.20
2022-09-06T03:42:09.034Z,35.06
2022-09-06T03:44:40.509Z,34.98
2022-09-06T03:47:08.680Z,35.06
2022-09-06T03:49:36.629Z,34.48
2022-09-06T03:52:04.965Z,34.60
2022-09-06T03:54:32.793Z,34.53
2022-09-06T03:57:02.310Z,34.49
2022-09-06T03:59:30.644Z,35.11
2022-09-06T04:01:58.757Z,34.75
2022-09-06T04:04:26.813Z,34.98
2022-09-06T04:06:54.885Z,34.64
2022-09-06T04:09:23.568Z,34.72
2022-09-06T04:11:51.661Z,34.36
2022-09-06T04:14:21.052Z,34.09
2022-09-06T04:16:49.043Z,34.82
2022-09-06T04:19:17.084Z,34.62
2022-09-06T04:21:45.407Z,34.57
2022-09-06T04:24:13.651Z,35.65
2022-09-06T04:26:42.654Z,35.36
2022-09-06T04:29:10.730Z,34.74
2022-09-06T04:31:40.539Z,35.36
2022-09-06T04:34:08.453Z,34.97
2022-09-06T04:36:37.489Z,34.71
2022-09-06T04:39:06.770Z,34.70
2022-09-06T04:41:34.852Z,35.32
2022-09-06T04:44:05.820Z,35.71
2022-09-06T04:46:33.903Z,35.40
2022-09-06T04:49:03.418Z,35.30
2022-09-06T04:51:31.748Z,35.13
2022-09-06T04:53:59.720Z,35.13
2022-09-06T04:56:28.380Z,35.44
2022-09-06T04:58:56.823Z,35.33
2022-09-06T05:01:26.514Z,35.57
2022-09-06T05:03:56.923Z,35.54
2022-09-06T05:06:26.840Z,35.75
2022-09-06T05:08:54.664Z,35.66
2022-09-06T05:11:22.867Z,35.51
2022-09-06T05:13:51.668Z,35.69
2022-09-06T05:16:19.801Z,35.39
2022-09-06T05:18:47.832Z,35.98
2022-09-06T05:21:16.160Z,35.45
2022-09-06T05:23:45.912Z,36.30
2022-09-06T05:26:14.017Z,35.54
2022-09-06T05:28:42.097Z,36.14
2022-09-06T05:31:11.014Z,36.01
2022-09-06T05:33:39.443Z,36.38
2022-09-06T05:36:08.359Z,36.15
2022-09-06T05:38:36.442Z,36.69
2022-09-06T05:41:06.204Z,36.72
2022-09-06T05:43:35.733Z,36.55
2022-09-06T05:46:05.570Z,36.10
2022-09-06T05:48:37.051Z,36.07
2022-09-06T05:51:06.568Z,36.14
2022-09-06T05:53:35.751Z,36.65
2022-09-06T05:56:06.093Z,36.35
2022-09-06T05:58:34.176Z,36.60
2022-09-06T06:01:06.170Z,36.64
2022-09-06T06:03:34.538Z,36.82
2022-09-06T06:06:02.394Z,36.53
2022-09-06T06:08:30.705Z,37.13
2022-09-06T06:10:59.987Z,36.74
2022-09-06T06:13:34.893Z,36.93
2022-09-06T06:16:04.019Z,36.93
2022-09-06T06:18:32.032Z,36.82
2022-09-06T06:21:10.193Z,37.10
2022-09-06T06:23:38.286Z,37.28
2022-09-06T06:26:07.183Z,36.67
2022-09-06T06:28:37.489Z,36.67
2022-09-06T06:31:06.348Z,37.00
2022-09-06T06:33:36.365Z,36.91
2022-09-06T06:36:07.091Z,36.61
2022-09-06T06:38:36.355Z,36.72
2022-09-06T06:41:07.182Z,37.05
2022-09-06T06:43:40.804Z,36.61
2022-09-06T06:46:09.671Z,37.02
2022-09-06T06:48:39.731Z,37.04
2022-09-06T06:51:08.050Z,36.62
2022-09-06T06:53:36.741Z,36.41
2022-09-06T06:56:14.416Z,36.82
2022-09-06T06:58:44.776Z,36.81
2022-09-06T07:01:14.001Z,37.38
2022-09-06T07:03:42.436Z,37.37
2022-09-06T07:06:10.867Z,38.86
2022-09-06T07:08:39.495Z,37.69
2022-09-06T07:11:07.943Z,37.82
2022-09-06T07:13:36.378Z,37.91
2022-09-06T07:16:09.989Z,37.44
2022-09-06T07:18:42.173Z,37.28
2022-09-06T07:24:07.637Z,37.20
2022-09-06T07:26:37.595Z,36.78
2022-09-06T07:29:06.272Z,36.86
2022-09-06T07:34:26.418Z,35.64
2022-09-06T07:36:54.755Z,35.37
2022-09-06T07:39:23.112Z,34.82
2022-09-06T07:41:51.259Z,34.03
2022-09-06T07:44:20.069Z,33.61
2022-09-06T07:46:49.425Z,33.53
2022-09-06T07:49:17.548Z,32.95
2022-09-06T07:51:45.520Z,32.67
2022-09-06T07:54:29.969Z,32.41
2022-09-06T07:56:58.845Z,32.19
2022-09-06T07:59:27.666Z,31.96
2022-09-06T08:01:57.305Z,31.83
2022-09-06T08:04:25.351Z,31.44
2022-09-06T08:09:41.917Z,30.95
2022-09-06T08:12:09.992Z,30.94
2022-09-06T08:14:39.415Z,30.70
2022-09-06T08:17:09.040Z,30.73
2022-09-06T08:19:37.505Z,30.53
2022-09-06T08:22:05.479Z,30.69
2022-09-06T08:24:35.932Z,30.10
2022-09-06T08:27:04.006Z,30.35
2022-09-06T08:29:31.970Z,30.05
2022-09-06T08:32:00.247Z,29.77
2022-09-06T08:34:29.688Z,29.68
2022-09-06T08:36:57.698Z,29.55
2022-09-06T08:39:26.250Z,29.71
2022-09-06T08:41:56.451Z,29.38
2022-09-06T08:47:21.607Z,28.78
2022-09-06T08:49:53.106Z,29.09
2022-09-06T08:52:26.933Z,28.81
2022-09-06T08:54:56.945Z,28.97
2022-09-06T08:57:34.180Z,27.68
2022-09-06T09:00:10.456Z,28.27
2022-09-06T09:02:43.298Z,28.64
2022-09-06T09:05:18.901Z,28.75
2022-09-06T09:07:49.165Z,28.82
2022-09-06T09:10:21.335Z,28.56
2022-09-06T09:12:50.518Z,28.02
2022-09-06T09:15:20.107Z,28.33
2022-09-06T09:17:48.908Z,27.97
2022-09-06T09:20:18.673Z,28.21
2022-09-06T09:22:47.468Z,27.89
2022-09-06T09:25:19.629Z,27.50
2022-09-06T09:27:48.315Z,28.02
2022-09-06T09:33:21.915Z,27.42
2022-09-06T09:35:51.579Z,27.80
2022-09-06T09:38:24.766Z,27.21
2022-09-06T09:40:54.200Z,27.23
2022-09-06T09:43:23.602Z,27.32
2022-09-06T09:46:11.298Z,27.52
2022-09-06T09:48:43.292Z,27.22
2022-09-06T09:51:26.982Z,27.31
2022-09-06T09:53:56.008Z,26.93
2022-09-06T09:56:28.771Z,26.69
2022-09-06T09:58:58.111Z,26.49
2022-09-06T10:01:28.066Z,26.59
2022-09-06T10:09:37.114Z,26.34
2022-09-06T10:12:07.068Z,26.02
2022-09-06T10:14:42.716Z,25.73
2022-09-06T10:17:33.711Z,26.03
2022-09-06T10:20:04.055Z,25.71
2022-09-06T10:22:36.467Z,26.29
2022-09-06T10:25:15.478Z,25.67
2022-09-06T10:28:10.576Z,25.91
2022-09-06T10:30:42.489Z,25.82
2022-09-06T10:33:15.600Z,25.34
2022-09-06T10:35:43.662Z,25.48
2022-09-06T10:38:30.582Z,25.85
2022-09-06T10:41:09.129Z,24.94
2022-09-06T10:43:42.725Z,24.89
2022-09-06T10:46:13.266Z,25.09
2022-09-06T10:48:42.492Z,24.65
2022-09-06T10:51:18.831Z,24.28
2022-09-06T10:53:49.213Z,24.36
2022-09-06T10:56:22.554Z,24.38
2022-09-06T11:01:47.802Z,24.09
2022-09-06T11:04:20.317Z,24.67
2022-09-06T11:06:52.357Z,24.18
2022-09-06T11:09:24.839Z,24.65
2022-09-06T11:12:01.109Z,23.73
2022-09-06T11:14:30.138Z,24.45
2022-09-06T11:17:05.081Z,24.35
2022-09-06T11:19:35.167Z,24.23
2022-09-06T11:22:16.938Z,23.75
2022-09-06T11:25:06.127Z,23.28
2022-09-06T11:27:37.690Z,23.45
2022-09-06T11:30:09.740Z,23.63
2022-09-06T11:32:40.103Z,23.37
2022-09-06T11:35:10.331Z,23.13
2022-09-06T11:37:40.953Z,22.88
2022-09-06T11:40:29.408Z,23.35
2022-09-06T11:43:12.732Z,23.25
2022-09-06T11:45:46.236Z,23.04
2022-09-06T11:48:35.433Z,23.75
2022-09-06T11:51:09.047Z,23.50
2022-09-06T11:53:57.866Z,23.31
2022-09-06T11:56:29.666Z,23.50
2022-09-06T11:59:01.587Z,22.98
2022-09-06T12:01:41.114Z,23.34
2022-09-06T12:04:10.557Z,23.59
2022-09-06T12:06:43.946Z,22.96
2022-09-06T12:09:33.755Z,23.42
2022-09-06T12:12:01.975Z,23.32
2022-09-06T12:14:46.999Z,23.41
2022-09-06T12:17:23.669Z,22.87
2022-09-06T12:19:53.084Z,23.17
2022-09-06T12:22:40.363Z,23.21
2022-09-06T12:25:17.137Z,23.11
2022-09-06T12:27:53.581Z,23.17
2022-09-06T12:30:34.512Z,23.10
2022-09-06T12:33:03.777Z,22.81
2022-09-06T12:38:24.887Z,22.49
2022-09-06T12:40:58.453Z,22.46
2022-09-06T12:43:27.530Z,22.69
2022-09-06T12:46:00.803Z,22.86
2022-09-06T12:48:31.376Z,22.69
2022-09-06T12:51:03.674Z,22.93
2022-09-06T12:53:32.212Z,22.44
2022-09-06T12:56:04.613Z,22.71
2022-09-06T12:58:32.817Z,22.92
2022-09-06T13:01:05.092Z,22.14
2022-09-06T13:03:36.676Z,22.00
2022-09-06T13:06:06.299Z,21.97
2022-09-06T13:08:35.948Z,22.22
2022-09-06T13:11:05.347Z,21.73
2022-09-06T13:13:33.549Z,21.85
2022-09-06T13:16:01.929Z,21.96
2022-09-06T13:18:35.586Z,21.77
2022-09-06T13:21:04.983Z,21.50
2022-09-06T13:23:41.225Z,21.55
2022-09-06T13:26:09.546Z,21.58
2022-09-06T13:28:37.774Z,21.85
2022-09-06T13:31:11.167Z,21.50
2022-09-06T13:33:41.349Z,21.50
2022-09-06T13:36:23.244Z,20.99
2022-09-06T13:38:51.940Z,20.79
2022-09-06T13:41:41.125Z,20.86
2022-09-06T13:44:21.475Z,20.77
2022-09-06T13:46:55.283Z,20.86
2022-09-06T13:49:25.408Z,20.66
2022-09-06T13:51:54.091Z,20.36
2022-09-06T13:54:22.896Z,20.64
2022-09-06T13:56:51.337Z,21.20
2022-09-06T13:59:19.948Z,20.54
2022-09-06T14:01:49.404Z,20.26
2022-09-06T14:04:21.525Z,20.68
2022-09-06T14:06:51.567Z,20.81
2022-09-06T14:09:19.532Z,20.11
2022-09-06T14:11:48.513Z,19.99
2022-09-06T14:14:17.872Z,20.45
2022-09-06T14:16:46.424Z,20.32
2022-09-06T14:19:14.626Z,19.46
2022-09-06T14:21:43.437Z,19.26
2022-09-06T14:24:13.300Z,19.57
2022-09-06T14:26:41.749Z,19.48
2022-09-06T14:29:10.076Z,19.13
2022-09-06T14:31:38.979Z,19.49
2022-09-06T14:34:07.077Z,18.37
2022-09-06T14:36:35.749Z,19.12
2022-09-06T14:39:04.345Z,19.12
2022-09-06T14:41:34.062Z,18.67
2022-09-06T14:44:05.024Z,18.37
2022-09-06T14:46:34.707Z,18.75
2022-09-06T14:49:03.647Z,19.10
2022-09-06T14:51:37.914Z,18.70
2022-09-06T14:54:07.673Z,19.18
2022-09-06T14:56:38.148Z,18.91
2022-09-06T14:59:06.865Z,18.46
2022-09-06T15:01:38.516Z,18.47
2022-09-06T15:04:08.038Z,18.26
2022-09-06T15:06:37.034Z,17.76
2022-09-06T15:09:06.733Z,18.46
2022-09-06T15:11:36.360Z,17.69
2022-09-06T15:14:07.934Z,18.15
2022-09-06T15:16:36.366Z,18.69
2022-09-06T15:19:04.805Z,18.21
2022-09-06T15:21:33.609Z,18.79
2022-09-06T15:24:02.665Z,18.29
2022-09-06T15:26:31.562Z,18.67
2022-09-06T15:28:59.691Z,18.73
2022-09-06T15:31:29.949Z,18.11
2022-09-06T15:33:58.608Z,18.47
2022-09-06T15:36:27.606Z,17.87
2022-09-06T15:38:59.898Z,18.18
2022-09-06T15:41:29.532Z,17.70
2022-09-06T15:43:58.449Z,17.63
2022-09-06T15:46:43.583Z,17.66
2022-09-06T15:49:12.259Z,17.31
2022-09-06T15:51:42.277Z,17.44
2022-09-06T15:54:11.055Z,17.56
2022-09-06T15:56:38.455Z,17.48
2022-09-06T15:59:07.148Z,17.13
2022-09-06T16:01:35.858Z,17.79
2022-09-06T16:04:06.857Z,17.37
2022-09-06T16:06:36.381Z,17.87
2022-09-06T16:09:06.166Z,17.47
2022-09-06T16:11:37.024Z,17.70
2022-09-06T16:14:06.055Z,17.46
2022-09-06T16:16:35.069Z,17.47
2022-09-06T16:19:03.628Z,17.44
2022-09-06T16:21:35.308Z,17.71
2022-09-06T16:24:07.227Z,17.61
2022-09-06T16:26:39.275Z,17.28
2022-09-06T16:29:08.429Z,17.11
2022-09-06T16:31:40.317Z,17.76
2022-09-06T16:34:09.044Z,17.28
2022-09-06T16:36:38.918Z,17.72
2022-09-06T16:39:07.969Z,17.60
2022-09-06T16:41:39.563Z,17.54
2022-09-06T16:44:07.959Z,17.88
2022-09-06T16:46:40.241Z,17.20
2022-09-06T16:49:08.686Z,17.62
2022-09-06T16:51:36.885Z,17.99
2022-09-06T16:54:07.017Z,17.79
2022-09-06T16:56:36.027Z,17.75
2022-09-06T16:59:05.817Z,17.64
2022-09-06T17:01:34.385Z,17.77
2022-09-06T17:04:02.980Z,17.72
2022-09-06T17:06:31.607Z,17.34
2022-09-06T17:08:59.966Z,17.27
2022-09-06T17:11:30.173Z,17.16
2022-09-06T17:13:58.732Z,17.18
2022-09-06T17:16:44.492Z,17.17
2022-09-06T17:19:14.094Z,17.23
2022-09-06T17:21:42.667Z,17.55
2022-09-06T17:24:10.855Z,17.60
2022-09-06T17:26:40.516Z,17.32
2022-09-06T17:29:09.059Z,16.96
2022-09-06T17:31:38.230Z,16.70
2022-09-06T17:34:07.770Z,17.47
2022-09-06T17:36:36.560Z,17.11
2022-09-06T17:39:05.944Z,17.31
2022-09-06T17:41:36.576Z,17.20
2022-09-06T17:44:06.908Z,17.10
2022-09-06T17:46:38.959Z,16.83
2022-09-06T17:49:12.794Z,17.02
2022-09-06T17:51:41.003Z,17.22
2022-09-06T17:54:09.928Z,17.25
2022-09-06T17:56:38.229Z,17.20
2022-09-06T17:59:09.093Z,17.35
2022-09-06T18:01:38.436Z,16.69
2022-09-06T18:04:06.949Z,17.56
2022-09-06T18:06:36.199Z,17.64
2022-09-06T18:09:05.127Z,17.66
2022-09-06T18:11:39.136Z,17.55
2022-09-06T18:14:09.510Z,17.85
2022-09-06T18:16:38.367Z,17.65
2022-09-06T18:19:06.917Z,17.71
2022-09-06T18:21:35.564Z,17.63
2022-09-06T18:24:03.668Z,17.75
2022-09-06T18:26:31.420Z,17.53
2022-09-06T18:28:59.125Z,17.64
2022-09-06T18:31:28.738Z,18.12
2022-09-06T18:33:58.797Z,17.98
2022-09-06T18:36:32.200Z,18.10
2022-09-06T18:39:02.644Z,18.25
2022-09-06T18:41:47.764Z,18.38
2022-09-06T18:44:16.042Z,18.52
2022-09-06T18:46:45.203Z,18.49
2022-09-06T18:49:15.283Z,18.65
2022-09-06T18:51:43.368Z,18.45
2022-09-06T18:54:11.393Z,18.75
2022-09-06T18:56:39.258Z,18.83
2022-09-06T18:59:07.710Z,18.74
2022-09-06T19:01:36.540Z,19.07
2022-09-06T19:04:06.461Z,18.93
2022-09-06T19:06:34.945Z,19.02
2022-09-06T19:09:03.586Z,18.90
2022-09-06T19:11:31.349Z,18.93
2022-09-06T19:13:59.266Z,19.45
2022-09-06T19:16:28.209Z,19.10
2022-09-06T19:18:56.886Z,19.24
2022-09-06T19:21:27.462Z,19.36
2022-09-06T19:23:56.855Z,19.25
2022-09-06T19:26:25.516Z,19.36
2022-09-06T19:28:54.754Z,19.28
2022-09-06T19:31:23.282Z,19.40
2022-09-06T19:33:51.719Z,19.37
2022-09-06T19:36:19.999Z,19.34
2022-09-06T19:39:05.605Z,19.35
2022-09-06T19:41:34.615Z,19.55
2022-09-06T19:44:05.425Z,19.27
2022-09-06T19:46:33.575Z,19.52
2022-09-06T19:49:02.180Z,19.50
2022-09-06T19:51:30.783Z,19.76
2022-09-06T19:54:00.122Z,19.65
2022-09-06T19:56:30.041Z,19.78
2022-09-06T19:58:59.093Z,19.95
2022-09-06T20:01:29.216Z,19.89
2022-09-06T20:03:58.307Z,20.17
2022-09-06T20:06:26.759Z,19.93
2022-09-06T20:08:55.019Z,20.20
2022-09-06T20:11:25.082Z,20.48
2022-09-06T20:13:52.900Z,20.41
2022-09-06T20:16:21.199Z,20.73
2022-09-06T20:18:49.423Z,20.64
2022-09-06T20:21:18.450Z,20.67
2022-09-06T20:23:49.326Z,21.31
2022-09-06T20:26:17.504Z,20.96
2022-09-06T20:28:47.338Z,22.15
2022-09-06T20:31:16.566Z,21.61
2022-09-06T20:33:49.159Z,22.03
2022-09-06T20:36:18.019Z,21.53
2022-09-06T20:38:46.122Z,21.70
2022-09-06T20:41:15.344Z,21.73
2022-09-06T20:43:43.325Z,22.43
2022-09-06T20:46:14.573Z,22.08
2022-09-06T20:48:44.998Z,22.58
2022-09-06T20:51:13.853Z,21.98
2022-09-06T20:53:41.705Z,22.09
2022-09-06T20:56:10.790Z,22.49
2022-09-06T20:58:39.233Z,22.58
2022-09-06T21:01:08.545Z,22.88
2022-09-06T21:03:39.395Z,22.42
2022-09-06T21:06:07.533Z,22.22
2022-09-06T21:08:40.572Z,22.41
2022-09-06T21:11:10.356Z,22.37
2022-09-06T21:13:38.640Z,22.50
2022-09-06T21:16:06.668Z,22.42
2022-09-06T21:18:34.992Z,22.42
2022-09-06T21:21:05.377Z,22.59
2022-09-06T21:23:34.300Z,22.68
2022-09-06T21:26:03.145Z,22.63
2022-09-06T21:28:31.788Z,22.74
2022-09-06T21:31:03.144Z,22.98
2022-09-06T21:33:31.374Z,22.80
2022-09-06T21:36:00.423Z,22.93
2022-09-06T21:38:29.849Z,22.82
2022-09-06T21:40:57.978Z,23.00
2022-09-06T21:43:25.805Z,22.99
2022-09-06T21:45:53.534Z,23.00
2022-09-06T21:48:21.413Z,22.97
2022-09-06T21:50:49.399Z,23.36
2022-09-06T21:53:17.441Z,23.27
2022-09-06T21:55:46.513Z,23.48
2022-09-06T21:58:14.732Z,23.49
2022-09-06T22:00:42.506Z,24.01
2022-09-06T22:03:10.631Z,23.37
2022-09-06T22:05:38.330Z,23.91
2022-09-06T22:08:06.106Z,23.89
2022-09-06T22:10:33.792Z,23.67
2022-09-06T22:13:02.972Z,23.85
2022-09-06T22:15:30.689Z,23.63
2022-09-06T22:17:58.367Z,23.48
2022-09-06T22:20:26.073Z,23.91
2022-09-06T22:22:53.810Z,23.66
2022-09-06T22:25:21.539Z,24.70
2022-09-06T22:27:49.261Z,24.00
2022-09-06T22:30:20.688Z,24.11
2022-09-06T22:32:50.388Z,24.25
2022-09-06T22:35:18.162Z,24.81
2022-09-06T22:37:45.891Z,24.28
2022-09-06T22:40:13.697Z,24.57
2022-09-06T22:42:41.544Z,24.77
2022-09-06T22:45:09.706Z,24.34
2022-09-06T22:47:38.797Z,24.31
2022-09-06T22:50:07.096Z,24.46
2022-09-06T22:52:34.846Z,24.12
2022-09-06T22:55:02.726Z,24.18
2022-09-06T22:57:30.485Z,24.12
2022-09-06T22:59:59.920Z,24.16
2022-09-06T23:02:27.613Z,24.41
2022-09-06T23:04:57.813Z,24.35
2022-09-06T23:07:25.647Z,24.35
2022-09-06T23:09:53.411Z,24.54
2022-09-06T23:12:21.206Z,24.62
2022-09-06T23:14:48.955Z,24.82
2022-09-06T23:17:16.784Z,24.57
2022-09-06T23:19:44.516Z,24.67
2022-09-06T23:22:13.680Z,25.08
2022-09-06T23:24:41.424Z,25.65
2022-09-06T23:27:09.323Z,25.87
2022-09-06T23:29:37.040Z,26.09
2022-09-06T23:32:04.759Z,26.53
2022-09-06T23:34:32.481Z,26.10
2022-09-06T23:37:00.310Z,26.47
2022-09-06T23:39:29.596Z,26.82
2022-09-06T23:41:57.387Z,27.62
2022-09-06T23:44:25.201Z,27.23
2022-09-06T23:46:53.033Z,27.50
2022-09-06T23:49:20.859Z,27.82
2022-09-06T23:51:48.564Z,28.06
2022-09-06T23:54:16.227Z,27.94
2022-09-06T23:56:45.376Z,28.21
2022-09-06T23:59:13.077Z,28.95
